Pagrindinis puslapis
METAR-TAF:

METAR-TAF

Oro uostai :

Guilin, Kinija

platuma: 25-20N, ilguma: 110-18E, Aukštis: 166 m

Dabartinis oras

Ataskaita buvo paskelbta 1 valandą ir 13 minutes, ne 02:00 UTC
Vėjas 4 kt iš Šiaurės Rytų, svyruoja nuo Šiaurės ir Rytų
Temperatūra 7°C
Drėgmė 66%
Slėgis 1025 hPa
Matomumas: 5000 m
Apsiniaukę ne aukštis 3300 ft
migla

METAR: ZGKL 180200Z 04002MPS 350V080 5000 HZ OVC033 07/01 Q1025 NOSIG

Laikas: 11:13 (03:13 UTC)

Prognozė

Ataskaita buvo paskelbta 6 valandos ir 2 minutes, ne 21:11 UTC
Prognozė galioja nuo 18 metu 00 UTC su 18 metu 24 UTC
Vėjas 6 kt iš Šiaurės Rytų
Matomumas: 5000 m
Apsiniaukę ne aukštis 4000 ft
rūkana

TAF: ZGKL 172111Z 1800/1824 05003MPS 5000 BR OVC040 TX09/1807Z TN05/1823Z

Orai ataskaitas ir orų prognozės (METAR, TAF).

turimą stotys yra geltonos ir raudonos taškus žemėlapyje.

Perkelti pele per norėdami pamatyti stoties vardą.

Tada spustelėkite, norėdami matyti oro stebėjimo ir prognozės.

Norėdami pakeisti žemėlapį: spustelėkite ant žalios mygtukų su juodo kryžiaus žemyn,; žalią mygtuką su brūkšneliu, jei norite nutolinti; arba žalių rodyklių gretimoms žemėlapius.


METAR-TAF: